NKS2960 KFLL-KJAX
Flight info
| Callsign | NKS2960 |
|---|---|
| Flight time | N/A |
| Altitude | 30000 |
| Route | FRSBE2 STYMY ORL/N0430F310 HAINY QUBEN2 |
| Aircraft | A320/M-SDE3FGHIRWY/LB1 |
Departure
| Time | 2026-05-04 00:22 |
|---|---|
| Airport | Fort Lauderdale Hollywood International Airport (KFLL) |
Arrival
| Time | N/A |
|---|---|
| Airport | Jacksonville International Airport (KJAX) |
| Time | Latitude | Longitude | Altitude | Speed | Heading |
|---|---|---|---|---|---|
| 2026-05-03 22:43 | 26.07142 | -80.14689 | 21 ft | 0 kts | 180° |
| 2026-05-03 23:03 | 26.07152 | -80.14689 | 23 ft | 3 kts | 184° |
| 2026-05-03 23:04 | 26.07172 | -80.14686 | 22 ft | 3 kts | 199° |
| 2026-05-03 23:04 | 26.07189 | -80.14676 | 24 ft | 3 kts | 224° |
| 2026-05-03 23:04 | 26.07200 | -80.14660 | 20 ft | 3 kts | 262° |
| 2026-05-03 23:04 | 26.07200 | -80.14648 | 20 ft | 0 kts | 279° |
| 2026-05-03 23:18 | 26.07202 | -80.14658 | 20 ft | 3 kts | 279° |
| 2026-05-03 23:18 | 26.07206 | -80.14685 | 24 ft | 4 kts | 281° |
| 2026-05-03 23:19 | 26.07211 | -80.14709 | 21 ft | 2 kts | 284° |
| 2026-05-03 23:19 | 26.07214 | -80.14720 | 23 ft | 0 kts | 284° |
| 2026-05-03 23:22 | 26.07226 | -80.14750 | 23 ft | 6 kts | 301° |
| 2026-05-03 23:22 | 26.07253 | -80.14785 | 22 ft | 5 kts | 317° |
| 2026-05-03 23:22 | 26.07255 | -80.14788 | 22 ft | 0 kts | 315° |
| 2026-05-03 23:24 | 26.07250 | -80.14813 | 22 ft | 9 kts | 250° |
| 2026-05-03 23:24 | 26.07179 | -80.14856 | 22 ft | 14 kts | 182° |
| 2026-05-03 23:24 | 26.07143 | -80.14921 | 21 ft | 13 kts | 295° |
| 2026-05-03 23:25 | 26.07168 | -80.14970 | 21 ft | 7 kts | 278° |
| 2026-05-03 23:25 | 26.07148 | -80.15024 | 22 ft | 9 kts | 249° |
| 2026-05-03 23:25 | 26.07182 | -80.15093 | 21 ft | 13 kts | 315° |
| 2026-05-03 23:25 | 26.07270 | -80.15127 | 20 ft | 16 kts | 360° |
| 2026-05-03 23:26 | 26.07387 | -80.15128 | 21 ft | 18 kts | 360° |
| 2026-05-03 23:26 | 26.07490 | -80.15176 | 19 ft | 18 kts | 280° |
| 2026-05-03 23:26 | 26.07490 | -80.15331 | 16 ft | 22 kts | 270° |
| 2026-05-03 23:26 | 26.07492 | -80.15497 | 18 ft | 18 kts | 270° |
| 2026-05-03 23:27 | 26.07492 | -80.15607 | 19 ft | 14 kts | 271° |
| 2026-05-03 23:27 | 26.07493 | -80.15637 | 19 ft | 0 kts | 271° |
| 2026-05-03 23:31 | 26.07493 | -80.15652 | 19 ft | 5 kts | 271° |
| 2026-05-03 23:31 | 26.07493 | -80.15697 | 19 ft | 7 kts | 270° |
| 2026-05-03 23:32 | 26.07493 | -80.15732 | 19 ft | 0 kts | 270° |
| 2026-05-03 23:37 | 26.07493 | -80.15733 | 19 ft | 0 kts | 270° |
| 2026-05-03 23:37 | 26.07493 | -80.15765 | 19 ft | 8 kts | 270° |
| 2026-05-03 23:37 | 26.07493 | -80.15797 | 20 ft | 0 kts | 270° |
| 2026-05-03 23:38 | 26.07493 | -80.15800 | 20 ft | 0 kts | 270° |
| 2026-05-03 23:39 | 26.07494 | -80.15819 | 20 ft | 6 kts | 270° |
| 2026-05-03 23:39 | 26.07494 | -80.15861 | 21 ft | 1 kts | 271° |
| 2026-05-03 23:39 | 26.07494 | -80.15863 | 21 ft | 0 kts | 271° |
| 2026-05-03 23:43 | 26.07494 | -80.15864 | 21 ft | 0 kts | 271° |
| 2026-05-03 23:44 | 26.07494 | -80.15912 | 22 ft | 6 kts | 270° |
| 2026-05-03 23:45 | 26.07494 | -80.15919 | 22 ft | 0 kts | 270° |
| 2026-05-03 23:47 | 26.07494 | -80.15924 | 22 ft | 4 kts | 270° |
| 2026-05-03 23:47 | 26.07494 | -80.15946 | 23 ft | 0 kts | 270° |
| 2026-05-03 23:50 | 26.07494 | -80.15967 | 23 ft | 6 kts | 270° |
| 2026-05-03 23:50 | 26.07494 | -80.16017 | 24 ft | 6 kts | 270° |
| 2026-05-03 23:50 | 26.07494 | -80.16035 | 25 ft | 0 kts | 270° |
| 2026-05-03 23:51 | 26.07494 | -80.16036 | 25 ft | 1 kts | 270° |
| 2026-05-03 23:51 | 26.07494 | -80.16037 | 25 ft | 0 kts | 270° |
| 2026-05-03 23:53 | 26.07495 | -80.16064 | 25 ft | 5 kts | 270° |
| 2026-05-03 23:53 | 26.07495 | -80.16066 | 25 ft | 0 kts | 271° |
| 2026-05-03 23:54 | 26.07495 | -80.16068 | 25 ft | 2 kts | 271° |
| 2026-05-03 23:55 | 26.07495 | -80.16110 | 26 ft | 5 kts | 270° |
| 2026-05-03 23:55 | 26.07495 | -80.16122 | 26 ft | 0 kts | 270° |
| 2026-05-03 23:58 | 26.07496 | -80.16146 | 25 ft | 6 kts | 270° |
| 2026-05-03 23:58 | 26.07496 | -80.16197 | 25 ft | 0 kts | 270° |
| 2026-05-04 00:00 | 26.07496 | -80.16224 | 25 ft | 6 kts | 270° |
| 2026-05-04 00:00 | 26.07496 | -80.16235 | 25 ft | 0 kts | 270° |
| 2026-05-04 00:02 | 26.07496 | -80.16239 | 25 ft | 2 kts | 270° |
| 2026-05-04 00:02 | 26.07496 | -80.16252 | 24 ft | 0 kts | 270° |
| 2026-05-04 00:03 | 26.07496 | -80.16256 | 24 ft | 4 kts | 270° |
| 2026-05-04 00:03 | 26.07496 | -80.16277 | 24 ft | 0 kts | 270° |
| 2026-05-04 00:03 | 26.07496 | -80.16281 | 24 ft | 3 kts | 270° |
| 2026-05-04 00:04 | 26.07496 | -80.16318 | 24 ft | 0 kts | 271° |
| 2026-05-04 00:04 | 26.07496 | -80.16325 | 24 ft | 0 kts | 271° |
| 2026-05-04 00:05 | 26.07496 | -80.16333 | 24 ft | 4 kts | 271° |
| 2026-05-04 00:05 | 26.07497 | -80.16340 | 24 ft | 0 kts | 271° |
| 2026-05-04 00:06 | 26.07497 | -80.16346 | 24 ft | 0 kts | 271° |
| 2026-05-04 00:06 | 26.07497 | -80.16348 | 24 ft | 2 kts | 271° |
| 2026-05-04 00:06 | 26.07497 | -80.16414 | 24 ft | 10 kts | 269° |
| 2026-05-04 00:07 | 26.07497 | -80.16465 | 24 ft | 0 kts | 270° |
| 2026-05-04 00:08 | 26.07497 | -80.16509 | 25 ft | 0 kts | 270° |
| 2026-05-04 00:10 | 26.07497 | -80.16515 | 25 ft | 0 kts | 270° |
| 2026-05-04 00:10 | 26.07497 | -80.16549 | 24 ft | 0 kts | 270° |
| 2026-05-04 00:10 | 26.07497 | -80.16557 | 24 ft | 0 kts | 270° |
| 2026-05-04 00:11 | 26.07497 | -80.16559 | 24 ft | 0 kts | 270° |
| 2026-05-04 00:12 | 26.07497 | -80.16567 | 24 ft | 3 kts | 270° |
| 2026-05-04 00:12 | 26.07497 | -80.16594 | 24 ft | 4 kts | 270° |
| 2026-05-04 00:12 | 26.07499 | -80.16611 | 24 ft | 0 kts | 278° |
| 2026-05-04 00:15 | 26.07499 | -80.16612 | 24 ft | 0 kts | 279° |
| 2026-05-04 00:17 | 26.07508 | -80.16629 | 25 ft | 6 kts | 311° |
| 2026-05-04 00:18 | 26.07540 | -80.16642 | 23 ft | 0 kts | 354° |
| 2026-05-04 00:19 | 26.07545 | -80.16642 | 23 ft | 2 kts | 356° |
| 2026-05-04 00:19 | 26.07574 | -80.16643 | 22 ft | 6 kts | 359° |
| 2026-05-04 00:20 | 26.07587 | -80.16643 | 23 ft | 0 kts | 359° |
| 2026-05-04 00:20 | 26.07606 | -80.16643 | 22 ft | 9 kts | 360° |
| 2026-05-04 00:20 | 26.07692 | -80.16610 | 22 ft | 15 kts | 73° |
| 2026-05-04 00:20 | 26.07694 | -80.16573 | 22 ft | 0 kts | 90° |
| 2026-05-04 00:21 | 26.07694 | -80.16567 | 22 ft | 4 kts | 90° |
| 2026-05-04 00:22 | 26.07691 | -80.16262 | 27 ft | 81 kts | 90° |
| 2026-05-04 00:22 | 26.07688 | -80.15328 | 19 ft | 156 kts | 90° |
| 2026-05-04 00:22 | 26.07686 | -80.13988 | 484 ft | 179 kts | 90° |
| 2026-05-04 00:22 | 26.07707 | -80.12558 | 1257 ft | 191 kts | 85° |
| 2026-05-04 00:23 | 26.07896 | -80.11070 | 2060 ft | 192 kts | 76° |
| 2026-05-04 00:23 | 26.08276 | -80.09701 | 2824 ft | 183 kts | 70° |
| 2026-05-04 00:23 | 26.08736 | -80.08342 | 3144 ft | 200 kts | 61° |
| 2026-05-04 00:23 | 26.09646 | -80.07096 | 3372 ft | 219 kts | 33° |
| 2026-05-04 00:24 | 26.11070 | -80.06333 | 3620 ft | 241 kts | 18° |
| 2026-05-04 00:24 | 26.11129 | -80.06308 | 3626 ft | 242 kts | 18° |